createdAt,value
2023-01-30T00:01:47.123Z,6.12
2023-01-30T00:04:17.444Z,6.13
2023-01-30T00:06:45.631Z,6.13
2023-01-30T00:09:15.102Z,6.17
2023-01-30T00:11:43.305Z,6.18
2023-01-30T00:14:11.543Z,6.20
2023-01-30T00:16:39.711Z,6.22
2023-01-30T00:19:07.870Z,6.22
2023-01-30T00:21:37.334Z,6.19
2023-01-30T00:24:05.714Z,6.20
2023-01-30T00:26:33.857Z,6.21
2023-01-30T00:29:01.943Z,6.22
2023-01-30T00:31:30.096Z,6.22
2023-01-30T00:33:58.332Z,6.20
2023-01-30T00:36:26.441Z,6.19
2023-01-30T00:38:57.804Z,6.21
2023-01-30T00:41:45.895Z,6.21
2023-01-30T00:44:31.493Z,6.20
2023-01-30T00:47:09.142Z,6.19
2023-01-30T00:49:37.823Z,6.21
2023-01-30T00:52:07.084Z,6.19
2023-01-30T00:54:36.574Z,6.19
2023-01-30T00:57:04.812Z,6.19
2023-01-30T00:59:32.875Z,6.19
2023-01-30T01:02:01.019Z,6.19
2023-01-30T01:04:29.127Z,6.22
2023-01-30T01:06:57.243Z,6.25
2023-01-30T01:09:25.313Z,6.27
2023-01-30T01:11:54.789Z,6.29
2023-01-30T01:14:22.928Z,6.31
2023-01-30T01:16:51.123Z,6.33
2023-01-30T01:19:19.218Z,6.38
2023-01-30T01:21:47.318Z,6.41
2023-01-30T01:24:16.643Z,6.42
2023-01-30T01:26:45.019Z,6.44
2023-01-30T01:29:15.121Z,6.46
2023-01-30T01:31:43.680Z,6.44
2023-01-30T01:34:11.917Z,6.47
2023-01-30T01:36:53.299Z,6.48
2023-01-30T01:39:22.498Z,6.52
2023-01-30T01:41:49.587Z,6.54
2023-01-30T01:44:19.232Z,6.56
2023-01-30T01:46:49.976Z,6.58
2023-01-30T01:49:22.059Z,6.58
2023-01-30T01:51:54.693Z,6.60
2023-01-30T01:54:28.110Z,6.60
2023-01-30T01:56:56.243Z,6.61
2023-01-30T01:59:28.428Z,6.63
2023-01-30T02:01:59.530Z,6.65
2023-01-30T02:04:42.949Z,6.66
2023-01-30T02:07:11.302Z,6.66
2023-01-30T02:09:39.585Z,6.68
2023-01-30T02:12:08.014Z,6.72
2023-01-30T02:14:38.480Z,6.72
2023-01-30T02:17:06.772Z,6.74
2023-01-30T02:19:48.173Z,6.76
2023-01-30T02:22:34.297Z,6.80
2023-01-30T02:25:26.057Z,6.83
2023-01-30T02:28:22.091Z,6.86
2023-01-30T02:31:22.830Z,6.87
2023-01-30T02:34:01.867Z,6.90
2023-01-30T02:36:39.712Z,6.94
2023-01-30T02:39:14.496Z,6.96
2023-01-30T02:41:49.466Z,6.97
2023-01-30T02:44:22.490Z,6.99
2023-01-30T02:46:54.178Z,6.99
2023-01-30T02:49:27.934Z,6.99
2023-01-30T02:51:57.807Z,6.90
2023-01-30T02:54:25.862Z,6.81
2023-01-30T02:56:55.367Z,6.74
2023-01-30T02:59:28.981Z,6.63
2023-01-30T03:02:18.814Z,6.51
2023-01-30T03:05:20.364Z,6.42
2023-01-30T03:07:55.085Z,6.37
2023-01-30T03:10:30.728Z,6.37
2023-01-30T03:13:03.910Z,6.40
2023-01-30T03:15:35.183Z,6.37
2023-01-30T03:18:04.441Z,6.32
2023-01-30T03:20:37.777Z,6.31
2023-01-30T03:23:05.850Z,6.32
2023-01-30T03:25:34.896Z,6.34
2023-01-30T03:28:03.389Z,6.35
2023-01-30T03:30:31.555Z,6.36
2023-01-30T03:32:59.674Z,6.35
2023-01-30T03:35:27.916Z,6.35
2023-01-30T03:37:57.393Z,6.35
2023-01-30T03:40:25.635Z,6.33
2023-01-30T03:42:53.691Z,6.35
2023-01-30T03:45:21.768Z,6.35
2023-01-30T03:47:49.836Z,6.34
2023-01-30T03:50:18.076Z,6.33
2023-01-30T03:52:46.182Z,6.32
2023-01-30T03:55:15.999Z,6.31
2023-01-30T03:57:44.235Z,6.29
2023-01-30T04:00:13.084Z,6.28
2023-01-30T04:02:41.253Z,6.27
2023-01-30T04:05:09.474Z,6.27
2023-01-30T04:07:37.561Z,6.26
2023-01-30T04:10:06.431Z,6.23
2023-01-30T04:12:35.918Z,6.23
2023-01-30T04:15:04.055Z,6.20
2023-01-30T04:17:32.173Z,6.20
2023-01-30T04:20:00.239Z,6.19
2023-01-30T04:22:28.318Z,6.17
2023-01-30T04:24:56.449Z,6.12
2023-01-30T04:27:24.680Z,6.04
2023-01-30T04:29:54.144Z,5.98
2023-01-30T04:32:22.226Z,5.90
2023-01-30T04:34:50.331Z,5.84
2023-01-30T04:37:18.501Z,5.76
2023-01-30T04:39:46.589Z,5.72
2023-01-30T04:42:14.748Z,5.69
2023-01-30T04:44:42.848Z,5.68
2023-01-30T04:47:12.311Z,5.68
2023-01-30T04:49:40.540Z,5.67
2023-01-30T04:52:08.891Z,5.63
2023-01-30T04:54:37.050Z,5.58
2023-01-30T04:57:05.400Z,5.53
2023-01-30T04:59:33.479Z,5.49
2023-01-30T05:02:01.617Z,5.46
2023-01-30T05:04:31.193Z,5.42
2023-01-30T05:06:59.259Z,5.40
2023-01-30T05:09:27.343Z,5.37
2023-01-30T05:11:55.380Z,5.37
2023-01-30T05:14:23.461Z,5.35
2023-01-30T05:16:51.580Z,5.31
2023-01-30T05:19:19.882Z,5.29
2023-01-30T05:21:49.314Z,5.29
2023-01-30T05:24:17.427Z,5.29
2023-01-30T05:26:45.582Z,5.30
2023-01-30T05:29:13.692Z,5.30
2023-01-30T05:31:41.944Z,5.31
2023-01-30T05:34:12.113Z,5.32
2023-01-30T05:36:40.214Z,5.32
2023-01-30T05:39:09.657Z,5.31
2023-01-30T05:41:37.741Z,5.31
2023-01-30T05:44:06.253Z,5.30
2023-01-30T05:46:34.474Z,5.29
2023-01-30T05:49:04.165Z,5.29
2023-01-30T05:51:32.328Z,5.30
2023-01-30T05:54:00.516Z,5.31
2023-01-30T05:56:33.138Z,5.33
2023-01-30T05:59:02.421Z,5.35
2023-01-30T06:01:31.069Z,5.37
2023-01-30T06:03:59.267Z,5.39
2023-01-30T06:06:27.362Z,5.40
2023-01-30T06:08:56.419Z,5.40
2023-01-30T06:11:25.154Z,5.40
2023-01-30T06:13:54.630Z,5.40
2023-01-30T06:16:22.809Z,5.39
2023-01-30T06:18:50.984Z,5.38
2023-01-30T06:21:19.052Z,5.36
2023-01-30T06:23:47.374Z,5.34
2023-01-30T06:26:15.488Z,5.31
2023-01-30T06:28:43.593Z,5.30
2023-01-30T06:31:13.048Z,5.31
2023-01-30T06:33:41.173Z,5.33
2023-01-30T06:36:10.019Z,5.37
2023-01-30T06:38:38.104Z,5.39
2023-01-30T06:41:06.712Z,5.42
2023-01-30T06:43:34.802Z,5.43
2023-01-30T06:46:02.922Z,5.44
2023-01-30T06:48:32.638Z,5.45
2023-01-30T06:51:00.709Z,5.47
2023-01-30T06:53:30.538Z,5.51
2023-01-30T06:55:59.333Z,5.54
2023-01-30T06:58:27.818Z,5.58
2023-01-30T07:00:55.962Z,5.61
2023-01-30T07:03:24.163Z,5.64
2023-01-30T07:05:53.659Z,5.67
2023-01-30T07:08:23.364Z,5.70
2023-01-30T07:10:52.559Z,5.70
2023-01-30T07:13:20.691Z,5.69
2023-01-30T07:15:48.969Z,5.65
2023-01-30T07:18:17.038Z,5.63
2023-01-30T07:20:48.323Z,5.62
2023-01-30T07:23:18.053Z,5.62
2023-01-30T07:25:46.196Z,5.64
2023-01-30T07:28:14.327Z,5.67
2023-01-30T07:30:42.472Z,5.72
2023-01-30T07:33:10.685Z,5.78
2023-01-30T07:35:39.899Z,5.84
2023-01-30T07:38:08.004Z,5.89
2023-01-30T07:40:37.446Z,5.94
2023-01-30T07:43:07.457Z,5.98
2023-01-30T07:45:37.992Z,6.00
2023-01-30T07:48:06.376Z,6.03
2023-01-30T07:50:34.461Z,6.07
2023-01-30T07:53:04.907Z,6.11
2023-01-30T07:55:33.028Z,6.15
2023-01-30T07:58:02.562Z,6.24
2023-01-30T08:00:31.109Z,6.33
2023-01-30T08:02:59.251Z,6.40
2023-01-30T08:05:27.849Z,6.47
2023-01-30T08:07:57.432Z,6.53
2023-01-30T08:10:25.739Z,6.58
2023-01-30T08:12:53.891Z,6.64
2023-01-30T08:15:23.359Z,6.67
2023-01-30T08:17:56.104Z,6.67
2023-01-30T08:20:24.234Z,6.65
2023-01-30T08:22:52.309Z,6.61
2023-01-30T08:25:20.424Z,6.59
2023-01-30T08:27:48.490Z,6.57
2023-01-30T08:30:17.039Z,6.55
2023-01-30T08:32:46.817Z,6.53
2023-01-30T08:35:15.447Z,6.51
2023-01-30T08:37:43.690Z,6.50
2023-01-30T08:40:13.186Z,6.45
2023-01-30T08:42:41.426Z,6.44
2023-01-30T08:45:10.106Z,6.34
2023-01-30T08:47:38.411Z,6.24
2023-01-30T08:50:08.559Z,6.11
2023-01-30T08:52:36.709Z,5.97
2023-01-30T08:55:05.165Z,5.82
2023-01-30T08:57:33.618Z,5.72
2023-01-30T09:00:01.927Z,5.67
2023-01-30T09:02:30.049Z,5.58
2023-01-30T09:04:58.180Z,5.56
2023-01-30T09:07:28.914Z,5.54
2023-01-30T09:09:57.075Z,5.53
2023-01-30T09:12:25.588Z,5.56
2023-01-30T09:14:55.634Z,5.63
2023-01-30T09:17:23.799Z,5.65
2023-01-30T09:19:51.902Z,5.62
2023-01-30T09:22:20.014Z,5.61
2023-01-30T09:24:49.497Z,5.66
2023-01-30T09:27:17.565Z,5.77
2023-01-30T09:29:45.651Z,5.92
2023-01-30T09:32:13.889Z,6.04
2023-01-30T09:34:42.011Z,6.12
2023-01-30T09:37:10.172Z,6.18
2023-01-30T09:39:38.263Z,6.25
2023-01-30T09:42:48.191Z,6.30
2023-01-30T09:45:48.808Z,6.35
2023-01-30T09:48:21.565Z,6.41
2023-01-30T09:51:21.596Z,6.46
2023-01-30T09:54:16.627Z,6.50
2023-01-30T09:56:44.774Z,6.56
2023-01-30T09:59:22.328Z,6.68
2023-01-30T10:01:57.478Z,6.75
2023-01-30T10:04:30.625Z,6.82
2023-01-30T10:07:07.387Z,6.85
2023-01-30T10:09:43.301Z,6.75
2023-01-30T10:12:30.958Z,6.51
2023-01-30T10:15:36.123Z,6.31
2023-01-30T10:18:45.173Z,6.18
2023-01-30T10:21:21.967Z,6.18
2023-01-30T10:24:18.225Z,6.23
2023-01-30T10:26:46.929Z,6.27
2023-01-30T10:29:19.232Z,6.28
2023-01-30T10:31:51.357Z,6.24
2023-01-30T10:34:25.333Z,6.21
2023-01-30T10:36:55.723Z,6.18
2023-01-30T10:39:31.283Z,6.20
2023-01-30T10:42:06.926Z,6.17
2023-01-30T10:44:35.492Z,6.21
2023-01-30T10:47:41.650Z,6.22
2023-01-30T10:50:18.569Z,6.22
2023-01-30T10:52:53.073Z,6.24
2023-01-30T10:55:37.185Z,6.22
2023-01-30T10:58:16.118Z,6.18
2023-01-30T11:00:49.226Z,6.16
2023-01-30T11:03:24.542Z,6.15
2023-01-30T11:05:56.305Z,6.14
2023-01-30T11:08:26.778Z,6.11
2023-01-30T11:10:55.703Z,6.10
2023-01-30T11:13:27.153Z,6.10
2023-01-30T11:15:57.485Z,6.08
2023-01-30T11:19:18.381Z,6.04
2023-01-30T11:21:34.944Z,6.06
2023-01-30T11:24:17.066Z,6.10
2023-01-30T11:26:48.190Z,6.04
2023-01-30T11:29:24.843Z,5.90
2023-01-30T11:31:53.634Z,5.74
2023-01-30T11:34:23.445Z,5.61
2023-01-30T11:36:53.109Z,5.51
2023-01-30T11:39:24.161Z,5.47
2023-01-30T11:42:01.895Z,5.64
2023-01-30T11:44:32.011Z,5.80
2023-01-30T11:47:01.838Z,6.06
2023-01-30T11:50:01.787Z,6.32
2023-01-30T11:52:25.860Z,6.51
2023-01-30T11:54:54.655Z,6.53
2023-01-30T11:57:22.793Z,6.52
2023-01-30T11:59:55.996Z,6.47
2023-01-30T12:02:26.449Z,6.43
2023-01-30T12:04:57.339Z,6.35
2023-01-30T12:07:28.837Z,6.33
2023-01-30T12:09:58.411Z,6.24
2023-01-30T12:12:35.084Z,6.15
2023-01-30T12:15:22.660Z,6.08
2023-01-30T12:17:55.366Z,6.20
2023-01-30T12:20:30.688Z,6.40
2023-01-30T12:23:09.028Z,6.61
2023-01-30T12:25:42.327Z,6.73
2023-01-30T12:28:15.716Z,6.81
2023-01-30T12:30:48.707Z,6.83
2023-01-30T12:35:56.840Z,6.82
2023-01-30T12:38:40.628Z,6.77
2023-01-30T12:41:18.915Z,6.75
2023-01-30T12:43:56.842Z,6.78
2023-01-30T12:46:38.775Z,6.81
2023-01-30T12:49:21.228Z,6.85
2023-01-30T12:52:01.107Z,6.87
2023-01-30T12:54:42.274Z,6.86
2023-01-30T12:57:20.690Z,6.90
2023-01-30T12:59:55.090Z,6.89
2023-01-30T13:02:37.609Z,6.93
2023-01-30T13:05:21.339Z,6.98
2023-01-30T13:08:01.127Z,6.96
2023-01-30T13:10:36.963Z,6.96
2023-01-30T13:13:13.073Z,6.95
2023-01-30T13:15:48.751Z,6.94
2023-01-30T13:18:20.111Z,6.96
2023-01-30T13:20:53.777Z,6.95
2023-01-30T13:23:25.571Z,7.09
2023-01-30T13:26:01.137Z,7.38
2023-01-30T13:28:34.359Z,7.76
2023-01-30T13:31:03.592Z,8.04
2023-01-30T13:33:34.139Z,8.16
2023-01-30T13:36:09.192Z,8.15
2023-01-30T13:38:40.116Z,7.87
2023-01-30T13:41:13.720Z,7.52
2023-01-30T13:43:45.290Z,7.32
2023-01-30T13:46:25.703Z,7.17
2023-01-30T13:49:03.709Z,7.02
2023-01-30T13:51:48.875Z,6.93
2023-01-30T13:54:38.599Z,6.85
2023-01-30T13:57:15.996Z,6.79
2023-01-30T14:00:10.616Z,6.79
2023-01-30T14:02:38.794Z,6.79
2023-01-30T14:05:07.255Z,6.76
2023-01-30T14:07:40.390Z,6.80
2023-01-30T14:10:15.270Z,6.86
2023-01-30T14:12:47.094Z,6.96
2023-01-30T14:15:28.974Z,7.14
2023-01-30T14:18:07.419Z,7.28
2023-01-30T14:20:36.996Z,7.40
2023-01-30T14:23:07.396Z,7.43
2023-01-30T14:25:47.201Z,7.46
2023-01-30T14:28:52.665Z,7.45
2023-01-30T14:31:54.607Z,7.34
2023-01-30T14:34:47.479Z,7.26
2023-01-30T14:37:43.582Z,7.17
2023-01-30T14:40:37.089Z,7.16
2023-01-30T14:43:41.835Z,7.11
2023-01-30T14:46:54.470Z,7.09
2023-01-30T14:49:32.513Z,7.04
2023-01-30T14:52:10.633Z,7.01
2023-01-30T14:54:45.691Z,7.02
2023-01-30T14:57:32.582Z,7.03
2023-01-30T15:00:17.137Z,7.03
2023-01-30T15:02:52.965Z,7.06
2023-01-30T15:05:26.393Z,7.03
2023-01-30T15:07:59.221Z,7.04
2023-01-30T15:10:55.020Z,7.03
2023-01-30T15:13:52.096Z,7.03
2023-01-30T15:16:56.006Z,7.01
2023-01-30T15:19:44.436Z,7.01
2023-01-30T15:22:22.134Z,6.95
2023-01-30T15:25:20.458Z,6.93
2023-01-30T15:28:01.078Z,6.93
2023-01-30T15:30:42.881Z,6.87
2023-01-30T15:33:22.948Z,6.86
2023-01-30T15:35:59.519Z,6.83
2023-01-30T15:38:30.419Z,6.80
2023-01-30T15:41:00.868Z,6.75
2023-01-30T15:43:54.537Z,6.70
2023-01-30T15:46:31.200Z,6.70
2023-01-30T15:49:16.709Z,6.65
2023-01-30T15:51:46.183Z,6.62
2023-01-30T15:54:18.515Z,6.59
2023-01-30T15:56:49.779Z,6.59
2023-01-30T15:59:28.794Z,6.58
2023-01-30T16:02:05.056Z,6.57
2023-01-30T16:04:33.330Z,6.56
2023-01-30T16:07:15.132Z,6.51
2023-01-30T16:09:49.620Z,6.49
2023-01-30T16:12:26.704Z,6.49
2023-01-30T16:15:03.154Z,6.44
2023-01-30T16:17:40.554Z,6.43
2023-01-30T16:20:15.166Z,6.42
2023-01-30T16:22:48.108Z,6.41
2023-01-30T16:25:22.142Z,6.42
2023-01-30T16:27:52.367Z,6.39
2023-01-30T16:30:26.533Z,6.36
2023-01-30T16:32:55.914Z,6.38
2023-01-30T16:35:34.225Z,6.34
2023-01-30T16:38:06.892Z,6.33
2023-01-30T16:40:45.318Z,6.27
2023-01-30T16:43:20.228Z,6.24
2023-01-30T16:46:20.938Z,6.21
2023-01-30T16:48:49.427Z,6.17
2023-01-30T16:51:23.684Z,6.16
2023-01-30T16:53:59.672Z,6.14
2023-01-30T16:56:28.821Z,6.12
2023-01-30T16:58:59.107Z,6.13
2023-01-30T17:01:41.137Z,6.13
2023-01-30T17:04:20.573Z,6.13
2023-01-30T17:06:57.491Z,6.15
2023-01-30T17:09:50.559Z,6.17
2023-01-30T17:12:44.588Z,6.16
2023-01-30T17:15:39.571Z,6.16
2023-01-30T17:18:09.574Z,6.15
2023-01-30T17:20:45.464Z,6.08
2023-01-30T17:23:14.557Z,6.01
2023-01-30T17:25:46.666Z,5.90
2023-01-30T17:28:21.039Z,5.83
2023-01-30T17:30:50.358Z,5.75
2023-01-30T17:33:18.551Z,5.74
2023-01-30T17:35:46.734Z,5.75
2023-01-30T17:38:14.902Z,5.72
2023-01-30T17:40:44.588Z,5.66
2023-01-30T17:43:13.233Z,5.62
2023-01-30T17:45:41.622Z,5.56
2023-01-30T17:48:11.378Z,5.59
2023-01-30T17:50:39.597Z,5.60
2023-01-30T17:53:07.688Z,5.61
2023-01-30T17:55:36.453Z,5.57
2023-01-30T17:58:07.484Z,5.54
2023-01-30T18:00:35.649Z,5.48
2023-01-30T18:03:03.864Z,5.46
2023-01-30T18:05:32.059Z,5.36
2023-01-30T18:08:00.211Z,5.31
2023-01-30T18:10:28.819Z,5.31
2023-01-30T18:12:59.001Z,5.27
2023-01-30T18:15:28.672Z,5.21
2023-01-30T18:17:56.855Z,5.21
2023-01-30T18:20:25.210Z,5.17
2023-01-30T18:22:53.284Z,5.15
2023-01-30T18:25:21.740Z,5.13
2023-01-30T18:27:50.091Z,5.10
2023-01-30T18:30:18.937Z,5.13
2023-01-30T18:32:53.241Z,5.15
2023-01-30T18:35:22.234Z,5.15
2023-01-30T18:37:50.956Z,5.18
2023-01-30T18:40:19.956Z,5.17
2023-01-30T18:42:48.585Z,5.15
2023-01-30T18:45:16.958Z,5.15
2023-01-30T18:47:45.182Z,5.10
2023-01-30T18:50:14.707Z,5.10
2023-01-30T18:52:42.777Z,5.10
2023-01-30T18:55:11.117Z,5.09
2023-01-30T18:57:39.213Z,5.06
2023-01-30T19:00:08.636Z,5.07
2023-01-30T19:02:36.845Z,5.04
2023-01-30T19:05:05.285Z,5.04
2023-01-30T19:07:36.237Z,5.02
2023-01-30T19:10:04.759Z,5.00
2023-01-30T19:12:50.257Z,4.99
2023-01-30T19:15:18.338Z,4.94
2023-01-30T19:17:46.419Z,4.94
2023-01-30T19:20:14.862Z,4.92
2023-01-30T19:22:44.297Z,4.89
2023-01-30T19:25:12.398Z,4.87
2023-01-30T19:27:40.499Z,4.85
2023-01-30T19:30:09.924Z,4.83
2023-01-30T19:32:38.013Z,4.80
2023-01-30T19:35:07.305Z,4.78
2023-01-30T19:37:35.965Z,4.78
2023-01-30T19:40:09.009Z,4.75
2023-01-30T19:42:40.345Z,4.76
2023-01-30T19:45:13.539Z,4.78
2023-01-30T19:47:41.595Z,4.77
2023-01-30T19:50:10.956Z,4.75
2023-01-30T19:52:41.970Z,4.73
2023-01-30T19:55:11.530Z,4.71
2023-01-30T19:57:39.603Z,4.68
2023-01-30T20:00:11.110Z,4.67
2023-01-30T20:02:39.349Z,4.64
2023-01-30T20:05:08.936Z,4.62
2023-01-30T20:07:38.484Z,4.62
2023-01-30T20:10:07.068Z,4.57
2023-01-30T20:12:36.677Z,4.56
2023-01-30T20:15:05.617Z,4.54
2023-01-30T20:17:33.918Z,4.56
2023-01-30T20:20:02.024Z,4.57
2023-01-30T20:22:30.175Z,4.61
2023-01-30T20:24:58.344Z,4.62
2023-01-30T20:27:26.439Z,4.63
2023-01-30T20:29:55.908Z,4.65
2023-01-30T20:32:24.023Z,4.64
2023-01-30T20:34:52.153Z,4.59
2023-01-30T20:37:20.311Z,4.57
2023-01-30T20:39:51.002Z,4.55
2023-01-30T20:42:19.784Z,4.53
2023-01-30T20:44:48.126Z,4.49
2023-01-30T20:47:17.575Z,4.46
2023-01-30T20:49:45.669Z,4.46
2023-01-30T20:52:13.771Z,4.45
2023-01-30T20:54:41.885Z,4.43
2023-01-30T20:57:10.210Z,4.42
2023-01-30T20:59:38.398Z,4.37
2023-01-30T21:02:06.483Z,4.38
2023-01-30T21:04:35.925Z,4.31
2023-01-30T21:07:04.965Z,4.28
2023-01-30T21:09:33.103Z,4.26
2023-01-30T21:12:01.199Z,4.26
2023-01-30T21:14:29.272Z,4.23
2023-01-30T21:16:57.400Z,4.21
2023-01-30T21:19:25.469Z,4.19
2023-01-30T21:21:56.482Z,4.18
2023-01-30T21:24:27.210Z,4.14
2023-01-30T21:26:56.339Z,4.14
2023-01-30T21:29:26.384Z,4.11
2023-01-30T21:31:55.588Z,4.09
2023-01-30T21:34:24.096Z,4.07
2023-01-30T21:37:06.113Z,4.07
2023-01-30T21:39:53.181Z,4.06
2023-01-30T21:42:35.227Z,4.04
2023-01-30T21:45:05.068Z,4.04
2023-01-30T21:47:33.263Z,4.02
2023-01-30T21:50:01.346Z,3.99
2023-01-30T21:52:29.465Z,3.98
2023-01-30T21:54:58.963Z,3.98
2023-01-30T21:57:27.056Z,3.96
2023-01-30T21:59:55.605Z,3.94
2023-01-30T22:02:23.977Z,3.93
2023-01-30T22:04:52.172Z,3.91
2023-01-30T22:07:20.310Z,3.91
2023-01-30T22:09:49.200Z,3.89
2023-01-30T22:12:18.677Z,3.88
2023-01-30T22:14:46.801Z,3.87
2023-01-30T22:17:14.952Z,3.90
2023-01-30T22:19:43.062Z,3.89
2023-01-30T22:22:11.180Z,3.89
2023-01-30T22:24:39.656Z,3.89
2023-01-30T22:27:07.815Z,3.88
2023-01-30T22:29:37.389Z,3.88
2023-01-30T22:32:06.152Z,3.87
2023-01-30T22:34:36.052Z,3.86
2023-01-30T22:37:04.473Z,3.84
2023-01-30T22:39:32.556Z,3.84
2023-01-30T22:42:00.660Z,3.83
2023-01-30T22:44:28.759Z,3.82
2023-01-30T22:46:58.338Z,3.82
2023-01-30T22:49:26.441Z,3.83
2023-01-30T22:51:54.605Z,3.82
2023-01-30T22:54:25.008Z,3.82
2023-01-30T22:56:53.324Z,3.82
2023-01-30T22:59:21.715Z,3.83
2023-01-30T23:01:51.920Z,3.83
2023-01-30T23:04:22.981Z,3.82
2023-01-30T23:06:52.426Z,3.83
2023-01-30T23:09:22.726Z,3.82
2023-01-30T23:12:06.165Z,3.84
2023-01-30T23:14:34.366Z,3.84
2023-01-30T23:17:22.508Z,3.84
2023-01-30T23:19:50.989Z,3.86
2023-01-30T23:22:19.301Z,3.86
2023-01-30T23:24:48.591Z,3.86
2023-01-30T23:27:16.790Z,3.84
2023-01-30T23:29:44.870Z,3.82
2023-01-30T23:32:13.009Z,3.82
2023-01-30T23:34:41.233Z,3.84
2023-01-30T23:37:10.801Z,3.83
2023-01-30T23:39:38.967Z,3.82
2023-01-30T23:42:07.103Z,3.81
2023-01-30T23:44:35.491Z,3.82
2023-01-30T23:47:03.619Z,3.80
2023-01-30T23:49:31.724Z,3.81
2023-01-30T23:52:02.901Z,3.78
2023-01-30T23:54:32.351Z,3.78
2023-01-30T23:57:00.437Z,3.76
2023-01-30T23:59:28.496Z,3.73
